Airfield :
LOGIN :

Register | Disclaimer

   EN    FR    IT 

 










Legend :    VFR   Marginal VFR   IFR   Intensive IFR   Very Intensive IFR
Visi :
Ceiling :
>= 8 km
>= 3000ft
5 to 8 km
1000 to 3000 ft
1500m to 5 km
500 to 1000 ft
800 to 1500m
200 to 500 ft
< 800m
< 200 ft
Symbols :   Thunderstorms  Fog  Heavy snow  Heavy precipitations  Wind > 20 kt
SIGMETs :     Misc.  Thunderstorms  Icing  Turbulence  Mountain Waves  Volcanic Ashes







- Airport Elevation : 25 ft
- IATA code : QCY


EGXC - RAF Coningsby

CURRENT METAR :
  • 241250Z 14009KT 9999 FEW035 BKN200 19/11 Q1019 BLU

EXPIRED METARs :
  • 241150Z 15010KT 9999 FEW032 BKN250 19/11 Q1020 BLU
  • 241050Z 15010KT 9999 FEW030 BKN220 19/11 Q1020 BLU

TAF TAF EGXC
Valid from the 24 at 12:00 until the 25 at 06:00 UTC


241035Z 2412/2506 15012KT 9999 FEW030
PROB40
TEMPO 2422/2506 7000 RA
PROB30
TEMPO 2503/2506 4000 -RADZ SCT008
No reported NOTAMs for that airfield.



MET'MAP, your aeronautical weather chart ! - Copyright ORBIFLY December 2007 - Disclaimer

ORBIFLY MET'MAP TEAM :

Programming & Development : Alexandra Zaïnal
Concept & Development : Baudouin d'Aumeries
Co-Development & Prog : Marc-Olivier Méhu
Technical & hardware support : Manuel Goepfert

Contact : metmap@orbifly.com




SOURCES & CREDITS :

   NOAA